createdAt,value
2022-11-04T00:00:38.442Z,-145.48
2022-11-04T00:03:41.066Z,-145.48
2022-11-04T00:06:45.119Z,-145.48
2022-11-04T00:09:47.593Z,-145.48
2022-11-04T00:12:49.187Z,-145.48
2022-11-04T00:16:08.250Z,-145.48
2022-11-04T00:19:10.727Z,-145.48
2022-11-04T00:22:32.243Z,-145.48
2022-11-04T00:25:52.132Z,-145.48
2022-11-04T00:28:54.625Z,-145.48
2022-11-04T00:32:14.811Z,-145.48
2022-11-04T00:35:17.456Z,-145.48
2022-11-04T00:38:21.322Z,-145.48
2022-11-04T00:41:30.375Z,-145.48
2022-11-04T00:44:33.030Z,-145.48
2022-11-04T00:47:35.495Z,-145.48
2022-11-04T00:50:37.972Z,-145.48
2022-11-04T00:53:41.953Z,-145.48
2022-11-04T00:56:44.599Z,-145.48
2022-11-04T00:59:47.130Z,-145.48
2022-11-04T01:02:49.637Z,-145.48
2022-11-04T01:05:52.111Z,-145.48
2022-11-04T01:08:58.203Z,-145.48
2022-11-04T01:12:00.771Z,-145.48
2022-11-04T01:15:03.242Z,-145.48
2022-11-04T01:18:06.701Z,-145.48
2022-11-04T01:21:12.906Z,-145.48
2022-11-04T01:24:16.695Z,-145.48
2022-11-04T01:27:19.266Z,-145.48
2022-11-04T01:30:21.797Z,-145.48
2022-11-04T01:33:24.950Z,-145.48
2022-11-04T01:36:28.603Z,-145.48
2022-11-04T01:39:32.381Z,-145.48
2022-11-04T01:42:34.859Z,-145.48
2022-11-04T01:45:37.447Z,-145.48
2022-11-04T01:48:39.975Z,-145.48
2022-11-04T01:51:43.850Z,-145.48
2022-11-04T01:54:49.786Z,-145.48
2022-11-04T01:57:56.623Z,-145.48
2022-11-04T02:00:59.195Z,-145.48
2022-11-04T02:04:22.861Z,-145.48
2022-11-04T02:07:25.592Z,-145.48
2022-11-04T02:10:31.682Z,-145.48
2022-11-04T02:13:35.692Z,-145.48
2022-11-04T02:16:44.056Z,-145.48
2022-11-04T02:20:00.523Z,-145.48
2022-11-04T02:23:33.178Z,-145.48
2022-11-04T02:27:12.043Z,-145.48
2022-11-04T02:30:17.285Z,-145.48
2022-11-04T02:33:30.149Z,-145.48
2022-11-04T02:36:40.108Z,-145.48
2022-11-04T02:39:53.356Z,-145.48
2022-11-04T02:43:01.149Z,-145.48
2022-11-04T02:46:10.221Z,-145.48
2022-11-04T02:49:15.887Z,-145.48
2022-11-04T02:52:24.679Z,-145.48
2022-11-04T02:55:31.052Z,-145.48
2022-11-04T02:58:38.187Z,-145.48
2022-11-04T03:01:45.642Z,-145.48
2022-11-04T03:04:52.748Z,-145.48
2022-11-04T03:07:59.721Z,-145.48
2022-11-04T03:11:10.069Z,-145.48
2022-11-04T03:14:19.674Z,-145.48
2022-11-04T03:17:32.062Z,-145.48
2022-11-04T03:20:37.796Z,-145.48
2022-11-04T03:23:41.158Z,-145.48
2022-11-04T03:26:50.394Z,-145.48
2022-11-04T03:30:00.274Z,-145.48
2022-11-04T03:33:09.463Z,-145.48
2022-11-04T03:36:12.252Z,-145.48
2022-11-04T03:39:14.697Z,-145.48
2022-11-04T03:42:21.095Z,-145.48
2022-11-04T03:45:24.118Z,-145.48
2022-11-04T03:48:27.977Z,-145.48
2022-11-04T03:51:30.456Z,-145.48
2022-11-04T03:54:35.774Z,-145.48
2022-11-04T03:57:49.452Z,-145.48
2022-11-04T04:00:58.874Z,-145.48
2022-11-04T04:04:12.241Z,-145.48
2022-11-04T04:07:21.220Z,-145.48
2022-11-04T04:10:42.078Z,-145.48
2022-11-04T04:13:50.947Z,-145.48
2022-11-04T04:16:55.828Z,-145.48
2022-11-04T04:20:02.849Z,-145.48
2022-11-04T04:23:29.474Z,-145.48
2022-11-04T04:26:56.962Z,-145.48
2022-11-04T04:30:01.760Z,-145.48
2022-11-04T04:33:08.016Z,-145.48
2022-11-04T04:36:11.852Z,-145.48
2022-11-04T04:39:35.415Z,-145.48
2022-11-04T04:42:56.265Z,-145.48
2022-11-04T04:45:58.743Z,-145.48
2022-11-04T04:49:05.791Z,-145.48
2022-11-04T04:52:09.565Z,-145.48
2022-11-04T04:55:13.228Z,-145.48
2022-11-04T04:58:15.690Z,-145.48
2022-11-04T05:01:18.300Z,-145.48
2022-11-04T05:04:20.818Z,-145.48
2022-11-04T05:07:24.672Z,-145.48
2022-11-04T05:10:27.223Z,-145.48
2022-11-04T05:13:30.492Z,-145.48
2022-11-04T05:16:38.007Z,-145.48
2022-11-04T05:19:43.002Z,-145.48
2022-11-04T05:22:46.796Z,-145.48
2022-11-04T05:25:49.290Z,-145.48
2022-11-04T05:28:51.823Z,-145.48
2022-11-04T05:31:54.291Z,-145.48
2022-11-04T05:34:56.827Z,-145.48
2022-11-04T05:38:00.609Z,-145.48
2022-11-04T05:41:03.269Z,-145.48
2022-11-04T05:44:07.042Z,-145.48
2022-11-04T05:47:09.528Z,-145.48
2022-11-04T05:50:12.006Z,-145.48
2022-11-04T05:53:15.934Z,-145.48
2022-11-04T05:56:20.387Z,-145.48
2022-11-04T05:59:22.841Z,-145.48
2022-11-04T06:02:25.420Z,-145.48
2022-11-04T06:05:28.801Z,-145.48
2022-11-04T06:08:32.609Z,-145.48
2022-11-04T07:07:47.461Z,9.88
2022-11-04T07:10:49.930Z,10.18
2022-11-04T07:13:52.942Z,10.58
2022-11-04T07:16:55.503Z,10.77
2022-11-04T07:19:58.028Z,10.82
2022-11-04T07:23:01.899Z,10.90
2022-11-04T07:47:48.165Z,10.00
2022-11-04T07:50:50.617Z,10.09
2022-11-04T07:53:53.092Z,10.42
2022-11-04T08:13:22.923Z,10.31
2022-11-04T08:16:31.469Z,10.65
2022-11-04T08:19:36.508Z,11.00
2022-11-04T08:22:39.157Z,11.19
2022-11-04T08:25:41.945Z,11.41
2022-11-04T08:28:46.018Z,11.59
2022-11-04T08:31:48.476Z,11.75
2022-11-04T08:34:51.040Z,11.86
2022-11-04T08:37:53.520Z,11.99
2022-11-04T08:41:00.106Z,12.07
2022-11-04T08:44:04.874Z,12.39
2022-11-04T08:47:07.438Z,12.21
2022-11-04T08:50:11.491Z,12.46
2022-11-04T08:53:14.043Z,12.66
2022-11-04T08:56:18.520Z,12.77
2022-11-04T08:59:22.309Z,13.13
2022-11-04T09:02:24.762Z,12.93
2022-11-04T09:05:27.593Z,13.06
2022-11-04T09:08:30.039Z,13.09
2022-11-04T09:11:34.130Z,13.21
2022-11-04T09:14:38.007Z,13.07
2022-11-04T09:17:40.493Z,13.14
2022-11-04T09:20:43.097Z,13.16
2022-11-04T09:23:46.617Z,13.28
2022-11-04T09:26:49.112Z,13.23
2022-11-04T09:29:52.924Z,13.22
2022-11-04T09:32:55.365Z,13.11
2022-11-04T09:51:21.094Z,12.41
2022-11-04T09:54:35.874Z,12.61
2022-11-04T09:57:38.534Z,12.80
2022-11-04T10:00:45.221Z,12.95
2022-11-04T10:03:59.890Z,13.25
2022-11-04T10:07:17.123Z,13.27
2022-11-04T10:10:29.231Z,13.65
2022-11-04T10:13:46.819Z,13.34
2022-11-04T10:17:05.522Z,13.59
2022-11-04T10:20:21.646Z,13.71
2022-11-04T10:23:34.329Z,13.94
2022-11-04T10:26:45.210Z,13.74
2022-11-04T10:36:03.741Z,12.80
2022-11-04T10:50:27.647Z,12.87
2022-11-04T10:53:26.173Z,12.87
2022-11-04T10:56:36.689Z,13.09
2022-11-04T10:59:51.186Z,13.41
2022-11-04T11:02:53.632Z,13.48
2022-11-04T11:06:12.640Z,13.44
2022-11-04T11:18:25.853Z,12.66
2022-11-04T11:32:44.291Z,12.66
2022-11-04T11:52:39.706Z,12.58
